Time;durP1;ratioP1;P1;durP2;ratioP2;P2;SDS_P1;SDS_P2;PMS_P1;PMS_P2;Temp;Humidity;BMP_temperature;BMP_pressure;BME280_temperature;BME280_humidity;BME280_pressure;Samples;Min_cycle;Max_cycle;Signal;HPM_P1;HPM_P2
2021/06/25 00:00:20;;;;;;;40.75;24.73;;;;;;;10.07;96.68;101885.19;5074688;28;20032;-63
2021/06/25 00:02:46;;;;;;;38.83;25.92;;;;;;;10.06;98.82;101878.16;5074370;28;20030;-62
2021/06/25 00:05:12;;;;;;;38.20;25.00;;;;;;;10.06;97.74;101875.50;5074185;28;20020;-62
2021/06/25 00:07:37;;;;;;;36.38;23.65;;;;;;;10.00;96.20;101877.09;5074450;28;20036;-62
2021/06/25 00:10:05;;;;;;;35.45;21.88;;;;;;;9.93;94.21;101883.97;5072733;28;20041;-62
2021/06/25 00:12:30;;;;;;;37.20;23.75;;;;;;;9.86;95.32;101885.59;5074014;28;20029;-62
2021/06/25 00:14:56;;;;;;;36.55;23.50;;;;;;;9.86;96.40;101890.88;5074217;28;20027;-62
2021/06/25 00:17:21;;;;;;;34.58;21.75;;;;;;;9.79;93.49;101881.03;5080923;28;20036;-62
2021/06/25 00:19:47;;;;;;;35.13;23.08;;;;;;;9.82;93.60;101880.22;5074220;28;20052;-62
2021/06/25 00:22:12;;;;;;;36.80;24.15;;;;;;;9.74;95.27;101874.72;5074103;28;20036;-66
2021/06/25 00:24:38;;;;;;;37.05;24.25;;;;;;;9.74;96.19;101880.94;5073861;28;20025;-67
2021/06/25 00:27:04;;;;;;;37.67;23.90;;;;;;;9.84;95.19;101878.50;5072110;28;20090;-67
2021/06/25 00:29:29;;;;;;;37.03;24.45;;;;;;;9.87;97.15;101875.91;5073877;28;20020;-65
2021/06/25 00:31:54;;;;;;;39.65;26.02;;;;;;;9.86;98.49;101866.22;5073823;28;20024;-66
2021/06/25 00:34:20;;;;;;;38.28;26.17;;;;;;;9.82;100.00;101862.63;5073867;28;20020;-66
2021/06/25 00:36:45;;;;;;;39.38;26.52;;;;;;;9.77;100.00;101859.88;5073629;28;20391;-66
2021/06/25 00:39:11;;;;;;;40.72;27.15;;;;;;;9.72;100.00;101861.50;5073872;28;20028;-67
2021/06/25 00:41:36;;;;;;;39.60;27.08;;;;;;;9.76;100.00;101858.06;5073635;28;20442;-64
2021/06/25 00:44:02;;;;;;;42.20;28.38;;;;;;;9.84;100.00;101860.00;5072139;28;20379;-65
2021/06/25 00:46:30;;;;;;;43.75;29.85;;;;;;;9.75;100.00;101861.56;5073371;28;20139;-66
2021/06/25 00:48:55;;;;;;;42.83;29.23;;;;;;;9.74;100.00;101856.25;5073682;28;20036;-67
2021/06/25 00:51:20;;;;;;;37.05;25.77;;;;;;;9.63;100.00;101852.47;5073534;28;20021;-65
2021/06/25 00:53:46;;;;;;;35.75;23.75;;;;;;;9.46;100.00;101833.59;5073253;28;20387;-67
2021/06/25 00:56:12;;;;;;;37.42;24.77;;;;;;;9.36;100.00;101840.38;5073439;28;20025;-67
2021/06/25 00:58:38;;;;;;;36.83;24.40;;;;;;;9.28;100.00;101845.47;5073096;28;20028;-67
2021/06/25 01:01:03;;;;;;;38.17;23.77;;;;;;;9.25;100.00;101842.75;5073294;28;20032;-67
2021/06/25 01:03:29;;;;;;;35.95;22.95;;;;;;;9.18;97.66;101843.44;5073387;28;20104;-67
2021/06/25 01:05:54;;;;;;;34.63;22.85;;;;;;;9.01;100.00;101838.63;5073012;28;20029;-62
2021/06/25 01:08:22;;;;;;;33.85;22.65;;;;;;;9.09;100.00;101844.09;5073015;28;20051;-62
2021/06/25 01:10:48;;;;;;;36.08;24.45;;;;;;;9.07;100.00;101837.88;5068680;28;20028;-61
2021/06/25 01:13:14;;;;;;;36.58;24.15;;;;;;;9.03;100.00;101836.03;5073085;28;20039;-62
2021/06/25 01:15:39;;;;;;;34.83;22.67;;;;;;;8.93;100.00;101834.88;5072914;28;20498;-62
2021/06/25 01:18:05;;;;;;;32.83;21.20;;;;;;;8.88;97.06;101833.84;5073303;28;20499;-62
2021/06/25 01:20:33;;;;;;;32.55;21.02;;;;;;;8.86;97.82;101836.44;5072851;28;20032;-62
2021/06/25 01:22:58;;;;;;;36.00;21.92;;;;;;;8.85;99.87;101839.03;5073084;28;20086;-62
2021/06/25 01:25:26;;;;;;;35.65;22.42;;;;;;;8.83;98.30;101836.38;5073253;28;20016;-63
2021/06/25 01:27:57;;;;;;;35.00;22.02;;;;;;;8.78;97.69;101830.09;5072977;28;20025;-62
2021/06/25 01:30:28;;;;;;;31.83;19.95;;;;;;;8.53;93.69;101831.13;5072940;28;20448;-63
2021/06/25 01:32:54;;;;;;;32.47;20.23;;;;;;;8.33;94.41;101834.06;5073165;28;20035;-63
2021/06/25 01:35:20;;;;;;;31.98;20.48;;;;;;;8.31;95.30;101835.75;5072794;28;20374;-63
2021/06/25 01:37:46;;;;;;;35.88;21.85;;;;;;;8.34;96.70;101830.59;5068557;28;20025;-63
2021/06/25 01:40:14;;;;;;;34.92;22.58;;;;;;;8.33;99.52;101833.16;5072838;28;20028;-63
2021/06/25 01:42:41;;;;;;;32.08;20.63;;;;;;;8.40;99.96;101827.22;5072739;28;20037;-63
2021/06/25 01:45:18;;;;;;;31.98;19.60;;;;;;;8.34;97.73;101821.78;5072399;28;20060;-63
2021/06/25 01:47:45;;;;;;;33.03;20.45;;;;;;;8.34;98.20;101827.94;5072662;28;20086;-62
2021/06/25 01:50:14;;;;;;;32.38;20.70;;;;;;;8.32;97.46;101828.75;5072847;28;20127;-62
2021/06/25 01:52:47;;;;;;;34.92;21.60;;;;;;;8.30;98.07;101822.53;5072657;28;20032;-62
2021/06/25 01:55:13;;;;;;;35.53;22.67;;;;;;;8.32;99.25;101812.94;5072372;28;20062;-64
2021/06/25 01:57:39;;;;;;;36.55;24.67;;;;;;;8.34;99.81;101822.69;5072889;28;20040;-65
2021/06/25 02:00:06;;;;;;;41.83;27.92;;;;;;;8.27;100.00;101815.44;5072682;28;20352;-62
2021/06/25 02:02:32;;;;;;;37.92;24.58;;;;;;;8.27;100.00;101815.44;5072486;28;20025;-62
2021/06/25 02:04:58;;;;;;;37.97;24.38;;;;;;;8.30;98.98;101812.91;5072599;28;20056;-62
2021/06/25 02:07:23;;;;;;;35.90;22.38;;;;;;;8.35;96.58;101818.28;5072448;28;20115;-61
2021/06/25 02:09:48;;;;;;;31.05;18.73;;;;;;;8.35;97.55;101808.63;5072287;28;20096;-62
2021/06/25 02:12:13;;;;;;;35.42;22.63;;;;;;;8.32;97.22;101816.47;5072449;28;20033;-62
2021/06/25 02:14:40;;;;;;;34.00;22.33;;;;;;;8.31;98.02;101816.41;5072309;28;20036;-62
2021/06/25 02:17:05;;;;;;;33.70;20.95;;;;;;;8.25;96.50;101814.50;5072212;28;20021;-62
2021/06/25 02:19:30;;;;;;;36.10;23.15;;;;;;;8.19;100.00;101816.94;5072555;28;20029;-62
2021/06/25 02:21:56;;;;;;;36.47;24.35;;;;;;;8.14;100.00;101810.63;5075287;28;20029;-63
2021/06/25 02:24:21;;;;;;;33.03;20.88;;;;;;;8.09;100.00;101804.34;5076324;28;20093;-62
2021/06/25 02:26:47;;;;;;;33.50;20.50;;;;;;;8.14;100.00;101808.91;5076652;28;20379;-62
2021/06/25 02:29:12;;;;;;;35.08;22.17;;;;;;;8.09;100.00;101805.25;5076304;28;20024;-64
2021/06/25 02:31:38;;;;;;;34.38;22.00;;;;;;;8.11;100.00;101800.00;5076278;28;20529;-64
2021/06/25 02:34:03;;;;;;;35.15;22.63;;;;;;;8.11;100.00;101802.66;5076073;28;20031;-64
2021/06/25 02:36:29;;;;;;;35.08;22.73;;;;;;;8.20;100.00;101808.22;5075818;28;20025;-64
2021/06/25 02:38:54;;;;;;;36.53;23.35;;;;;;;8.17;100.00;101808.13;5076035;28;20025;-67
2021/06/25 02:41:20;;;;;;;36.78;24.48;;;;;;;8.25;100.00;101806.59;5074404;28;20123;-66
2021/06/25 02:43:48;;;;;;;34.70;21.42;;;;;;;8.25;98.99;101803.06;5075705;28;20074;-66
2021/06/25 02:46:13;;;;;;;35.55;23.27;;;;;;;8.32;98.92;101800.66;5075908;28;20052;-65
2021/06/25 02:48:39;;;;;;;32.85;21.15;;;;;;;8.22;96.71;101800.34;5075756;28;20030;-64
2021/06/25 02:51:04;;;;;;;35.30;23.35;;;;;;;8.24;99.72;101794.25;5075799;28;20016;-66
2021/06/25 02:53:30;;;;;;;38.35;25.20;;;;;;;8.25;100.00;101801.31;5075691;28;20063;-65
2021/06/25 02:55:55;;;;;;;35.28;23.33;;;;;;;8.26;100.00;101791.69;5075628;28;20059;-62
2021/06/25 02:58:22;;;;;;;38.00;24.83;;;;;;;8.33;100.00;101793.63;5075552;28;20024;-62
2021/06/25 03:00:48;;;;;;;33.33;21.58;;;;;;;8.30;99.10;101789.19;5071628;28;20592;-62
2021/06/25 03:03:15;;;;;;;37.78;23.67;;;;;;;8.29;99.73;101786.50;5075606;28;20033;-62
2021/06/25 03:05:41;;;;;;;33.28;21.80;;;;;;;8.28;98.80;101779.44;5075397;28;20028;-62
2021/06/25 03:08:06;;;;;;;35.90;23.42;;;;;;;8.31;99.60;101767.25;5075584;28;20108;-62
2021/06/25 03:10:31;;;;;;;36.63;22.65;;;;;;;8.32;98.59;101769.03;5075449;28;20028;-64
2021/06/25 03:12:57;;;;;;;34.13;21.73;;;;;;;8.32;98.18;101766.41;5075281;28;20050;-66
2021/06/25 03:15:22;;;;;;;34.20;21.98;;;;;;;8.27;98.29;101762.75;5075643;28;20060;-63
2021/06/25 03:17:48;;;;;;;33.38;21.52;;;;;;;8.26;98.59;101771.50;5075360;28;20327;-63
2021/06/25 03:20:14;;;;;;;36.50;22.73;;;;;;;8.41;100.00;101768.41;5075318;28;20024;-63
2021/06/25 03:22:39;;;;;;;34.90;22.60;;;;;;;8.51;99.96;101766.97;5075092;28;20056;-64
2021/06/25 03:25:06;;;;;;;37.35;24.02;;;;;;;8.53;100.00;101774.06;5075044;28;20020;-68
2021/06/25 03:27:31;;;;;;;37.50;24.45;;;;;;;8.64;100.00;101769.06;5075419;28;20107;-63
2021/06/25 03:29:57;;;;;;;38.42;24.55;;;;;;;8.70;99.96;101761.31;5075152;28;20431;-64
2021/06/25 03:32:22;;;;;;;39.40;24.63;;;;;;;8.80;99.13;101764.22;5074073;28;20028;-66
2021/06/25 03:34:47;;;;;;;38.10;25.60;;;;;;;8.82;98.96;101763.38;5075281;28;20033;-62
2021/06/25 03:37:13;;;;;;;40.15;26.55;;;;;;;8.85;99.11;101759.94;5074817;28;20460;-63
2021/06/25 03:39:38;;;;;;;38.55;25.17;;;;;;;8.89;100.00;101752.13;5074800;28;20052;-62
2021/06/25 03:42:04;;;;;;;40.45;26.48;;;;;;;8.95;99.89;101747.88;5074917;28;20020;-62
2021/06/25 03:44:30;;;;;;;38.80;25.33;;;;;;;8.99;99.73;101755.91;5074829;28;20029;-65
2021/06/25 03:46:55;;;;;;;39.30;26.38;;;;;;;9.13;99.18;101752.72;5074522;28;20048;-62
2021/06/25 03:49:20;;;;;;;38.83;25.45;;;;;;;9.21;99.12;101756.44;5074859;28;20402;-65
2021/06/25 03:51:46;;;;;;;39.17;25.98;;;;;;;9.28;99.35;101755.75;5074793;28;20029;-63
2021/06/25 03:54:11;;;;;;;40.83;27.00;;;;;;;9.36;99.18;101756.84;5074924;28;20016;-63
2021/06/25 03:56:36;;;;;;;40.42;27.40;;;;;;;9.40;100.00;101748.09;5074568;28;20462;-62
2021/06/25 03:59:01;;;;;;;39.90;26.75;;;;;;;9.51;99.42;101753.66;5074656;28;20420;-64
2021/06/25 04:01:27;;;;;;;40.33;27.45;;;;;;;9.59;99.07;101748.53;5074568;28;20490;-64
2021/06/25 04:03:52;;;;;;;43.13;29.73;;;;;;;9.58;100.00;101745.03;5074585;28;20028;-62
2021/06/25 04:06:18;;;;;;;46.05;31.38;;;;;;;9.67;100.00;101751.34;5074337;28;20368;-68
2021/06/25 04:08:46;;;;;;;43.90;30.02;;;;;;;9.73;100.00;101756.78;5074506;28;20029;-65
2021/06/25 04:11:12;;;;;;;47.80;32.85;;;;;;;9.82;100.00;101746.41;5074252;28;20030;-66
2021/06/25 04:13:37;;;;;;;45.10;30.58;;;;;;;9.94;100.00;101746.66;5074222;28;20386;-61
2021/06/25 04:16:03;;;;;;;45.05;32.28;;;;;;;10.04;100.00;101746.88;5074068;28;20523;-62
2021/06/25 04:18:28;;;;;;;46.25;31.63;;;;;;;10.19;100.00;101746.31;5074138;28;20077;-62
2021/06/25 04:20:55;;;;;;;47.00;32.65;;;;;;;10.28;99.32;101749.13;5074140;28;20024;-62
2021/06/25 04:23:20;;;;;;;51.22;35.55;;;;;;;10.29;100.00;101745.63;5074246;28;20494;-63
2021/06/25 04:25:46;;;;;;;52.75;35.53;;;;;;;10.39;99.67;101728.22;5073926;28;20028;-62
2021/06/25 04:28:12;;;;;;;49.90;34.95;;;;;;;10.48;98.86;101730.16;5072065;28;20033;-62
2021/06/25 04:30:40;;;;;;;53.05;36.50;;;;;;;10.59;98.86;101725.97;5073772;28;20479;-63
2021/06/25 04:33:07;;;;;;;50.60;35.45;;;;;;;10.69;97.16;101722.63;5073884;28;20035;-62
2021/06/25 04:35:32;;;;;;;53.80;36.35;;;;;;;10.81;95.33;101725.47;5073617;28;20028;-63
2021/06/25 04:38:01;;;;;;;51.63;36.28;;;;;;;10.90;95.34;101721.22;5073773;28;20032;-63
2021/06/25 04:40:29;;;;;;;54.92;38.63;;;;;;;11.00;93.94;101723.16;5073571;28;20028;-62
2021/06/25 04:42:54;;;;;;;56.00;37.50;;;;;;;11.09;95.28;101718.00;5073975;28;20025;-62
2021/06/25 04:45:20;;;;;;;57.00;38.17;;;;;;;11.17;93.83;101726.06;5073158;28;20082;-62
2021/06/25 04:47:45;;;;;;;58.15;38.25;;;;;;;11.25;94.32;101713.84;5073442;28;20048;-62
2021/06/25 04:50:12;;;;;;;57.47;39.58;;;;;;;11.32;94.05;101720.13;5073403;28;20029;-62
2021/06/25 04:52:38;;;;;;;59.10;39.47;;;;;;;11.40;94.05;101718.50;5073670;28;20032;-62
2021/06/25 04:55:04;;;;;;;57.13;39.08;;;;;;;11.46;95.10;101713.28;5073264;28;20024;-61
2021/06/25 04:57:29;;;;;;;59.00;40.05;;;;;;;11.55;95.71;101716.91;5073193;28;20078;-62
2021/06/25 04:59:55;;;;;;;60.22;40.03;;;;;;;11.61;95.10;101715.25;5073174;28;20020;-66
2021/06/25 05:02:20;;;;;;;59.55;41.15;;;;;;;11.68;95.32;101708.28;5073483;28;20020;-68
2021/06/25 05:04:46;;;;;;;62.88;42.00;;;;;;;11.71;96.77;101710.06;5073215;28;20471;-66
2021/06/25 05:07:11;;;;;;;62.47;42.22;;;;;;;11.75;96.51;101712.81;5073359;28;20020;-66
2021/06/25 05:09:36;;;;;;;61.10;42.67;;;;;;;11.81;97.34;101711.97;5073099;28;20028;-64
2021/06/25 05:12:02;;;;;;;60.85;42.58;;;;;;;11.84;96.64;101714.69;5073314;28;20064;-62
2021/06/25 05:14:27;;;;;;;60.95;41.30;;;;;;;11.90;96.96;101713.84;5072800;28;20367;-68
2021/06/25 05:16:53;;;;;;;60.28;41.63;;;;;;;11.96;97.06;101706.03;5071808;28;20055;-62
2021/06/25 05:19:18;;;;;;;60.28;41.85;;;;;;;12.00;96.40;101710.50;5069220;28;20085;-67
2021/06/25 05:21:44;;;;;;;60.53;41.25;;;;;;;12.04;95.88;101704.34;5073007;28;20024;-68
2021/06/25 05:24:09;;;;;;;56.13;40.42;;;;;;;12.15;92.88;101707.13;5073040;28;20165;-66
2021/06/25 05:26:35;;;;;;;58.85;39.67;;;;;;;12.23;91.71;101702.78;5072965;28;20040;-67
2021/06/25 05:29:00;;;;;;;57.25;40.17;;;;;;;12.31;92.67;101695.81;5066939;28;20123;-61
2021/06/25 05:31:26;;;;;;;55.35;39.30;;;;;;;12.40;91.27;101697.69;5071129;28;20119;-61
2021/06/25 05:33:51;;;;;;;55.13;40.08;;;;;;;12.43;89.87;101703.00;5071098;28;20024;-61
2021/06/25 05:36:16;;;;;;;53.45;38.33;;;;;;;12.47;89.37;101702.19;5069338;28;20275;-61
2021/06/25 05:38:42;;;;;;;51.30;35.92;;;;;;;12.49;85.95;101695.09;5071224;28;20025;-63
2021/06/25 05:41:08;;;;;;;52.92;37.92;;;;;;;12.47;86.82;101699.53;5071140;28;20029;-60
2021/06/25 05:43:34;;;;;;;53.78;38.35;;;;;;;12.52;87.61;101700.47;5071001;28;20063;-62
2021/06/25 05:46:00;;;;;;;52.67;38.53;;;;;;;12.48;88.42;101697.75;5071047;28;20127;-62
2021/06/25 05:48:25;;;;;;;57.70;41.22;;;;;;;12.35;93.82;101692.34;5070907;28;20086;-61
2021/06/25 05:50:50;;;;;;;60.22;41.33;;;;;;;12.23;95.83;101684.22;5070055;28;20459;-61
2021/06/25 05:53:16;;;;;;;56.40;41.17;;;;;;;12.05;96.24;101687.56;5070867;28;20027;-62
2021/06/25 05:55:44;;;;;;;57.72;41.05;;;;;;;11.94;96.74;101689.19;5070411;28;20042;-62
2021/06/25 05:58:11;;;;;;;59.70;41.75;;;;;;;11.90;97.81;101697.94;5070430;28;20068;-61
2021/06/25 06:00:36;;;;;;;57.88;41.03;;;;;;;11.89;97.77;101697.06;5070455;28;20076;-61
2021/06/25 06:03:01;;;;;;;60.88;42.78;;;;;;;11.91;96.79;101684.75;5070666;28;20402;-62
2021/06/25 06:05:27;;;;;;;58.33;41.83;;;;;;;11.98;96.34;101691.03;5071104;28;20036;-61
2021/06/25 06:07:53;;;;;;;58.97;41.28;;;;;;;12.08;95.56;101687.59;5070653;28;20076;-61
2021/06/25 06:10:18;;;;;;;58.78;42.08;;;;;;;12.20;96.08;101694.81;5071035;28;20039;-61
2021/06/25 06:12:44;;;;;;;58.10;40.50;;;;;;;12.32;94.36;101692.31;5070152;28;20032;-61
2021/06/25 06:15:10;;;;;;;57.95;40.97;;;;;;;12.46;94.52;101703.03;5070953;28;20483;-62
2021/06/25 06:17:40;;;;;;;54.80;39.30;;;;;;;12.54;91.23;101711.97;5070650;28;20028;-61
2021/06/25 06:20:06;;;;;;;55.40;39.38;;;;;;;12.62;90.24;101706.72;5070416;28;20107;-61
2021/06/25 06:31:11;;;;;;;57.78;42.72;;;;;;;12.74;89.65;101700.66;5069582;28;20051;-61
2021/06/25 06:33:41;;;;;;;55.22;38.40;;;;;;;12.77;87.30;101697.13;5069772;28;20376;-61
2021/06/25 06:38:53;;;;;;;;;;;;;;;12.92;87.40;101697.28;5057429;28;20045;-64
2021/06/25 06:41:19;;;;;;;53.38;38.83;;;;;;;13.02;88.52;101701.78;5064191;28;19958;-65
2021/06/25 06:43:46;;;;;;;54.95;38.47;;;;;;;13.15;85.83;101696.56;5068094;28;20399;-64
2021/06/25 06:46:12;;;;;;;54.08;38.35;;;;;;;13.19;85.09;101701.00;5068197;28;20041;-66
2021/06/25 06:48:39;;;;;;;50.50;36.88;;;;;;;13.31;83.51;101697.56;5066529;28;20102;-67
2021/06/25 06:51:04;;;;;;;50.35;36.70;;;;;;;13.41;82.43;101705.63;5068006;28;20102;-66
2021/06/25 06:53:31;;;;;;;52.38;37.97;;;;;;;13.55;83.96;101704.81;5063167;28;20467;-62
2021/06/25 06:55:56;;;;;;;52.00;37.15;;;;;;;13.59;83.27;101712.81;5063945;28;20025;-67
2021/06/25 06:58:21;;;;;;;50.58;36.30;;;;;;;13.55;82.67;101708.34;5067577;28;20074;-70
2021/06/25 07:00:47;;;;;;;49.33;35.83;;;;;;;13.51;81.02;101709.22;5068728;28;20028;-69
2021/06/25 07:03:12;;;;;;;47.85;34.50;;;;;;;13.51;80.82;101719.84;5065776;28;20029;-69
2021/06/25 07:05:38;;;;;;;50.70;36.50;;;;;;;13.51;80.75;101716.31;5068778;28;20037;-67
2021/06/25 07:08:03;;;;;;;48.33;34.60;;;;;;;13.59;80.64;101717.25;5066890;28;20027;-62
2021/06/25 07:10:29;;;;;;;47.80;34.53;;;;;;;13.65;80.85;101719.94;5070815;28;20024;-68
2021/06/25 07:12:55;;;;;;;47.45;33.58;;;;;;;13.70;79.00;101728.84;5071448;28;20045;-70
2021/06/25 07:15:20;;;;;;;48.55;35.22;;;;;;;13.66;80.89;101721.72;5067472;28;20070;-62
2021/06/25 07:17:46;;;;;;;48.15;34.97;;;;;;;13.71;81.30;101713.78;5070418;28;20029;-63
2021/06/25 07:20:11;;;;;;;48.30;33.75;;;;;;;13.77;78.96;101724.41;5070473;28;20048;-62
2021/06/25 07:22:36;;;;;;;46.55;34.38;;;;;;;13.77;79.06;101724.41;5066743;28;20029;-62
2021/06/25 07:25:02;;;;;;;45.03;32.65;;;;;;;13.81;78.61;101720.91;5068193;28;20392;-62
2021/06/25 07:27:28;;;;;;;48.30;34.55;;;;;;;13.88;81.54;101725.38;5070084;28;20180;-62
2021/06/25 07:29:53;;;;;;;46.42;33.75;;;;;;;13.92;78.67;101724.50;5070761;28;20545;-62
2021/06/25 07:32:19;;;;;;;46.10;33.05;;;;;;;13.90;78.32;101730.69;5070445;28;20025;-62
2021/06/25 07:34:44;;;;;;;45.70;32.20;;;;;;;13.91;78.72;101724.50;5069968;28;20475;-63
2021/06/25 07:37:09;;;;;;;45.92;33.63;;;;;;;13.93;77.37;101712.97;5067628;28;20020;-62
2021/06/25 07:39:35;;;;;;;44.65;31.55;;;;;;;13.94;78.04;101713.88;5066853;28;20113;-62
2021/06/25 07:42:00;;;;;;;45.10;32.13;;;;;;;13.97;77.86;101721.88;5069752;28;20048;-66
2021/06/25 07:44:25;;;;;;;45.13;32.05;;;;;;;14.01;77.12;101717.44;5072772;28;20023;-66
2021/06/25 07:46:51;;;;;;;44.45;32.03;;;;;;;14.10;77.48;101715.69;5072934;28;20455;-67
2021/06/25 07:49:16;;;;;;;44.08;31.38;;;;;;;14.24;75.94;101720.19;5072522;28;20418;-64
2021/06/25 07:51:41;;;;;;;45.33;33.05;;;;;;;14.26;75.11;101723.75;5072973;28;20028;-66
2021/06/25 07:54:07;;;;;;;43.13;30.90;;;;;;;14.35;75.92;101720.22;5072499;28;20085;-66
2021/06/25 07:56:32;;;;;;;44.58;31.95;;;;;;;14.40;75.32;101718.44;5073750;28;20078;-67
2021/06/25 07:58:57;;;;;;;44.03;31.38;;;;;;;14.55;75.58;101710.50;5074248;28;20399;-66
2021/06/25 08:01:25;;;;;;;45.08;32.05;;;;;;;14.64;75.44;101715.00;5074213;28;20052;-67
2021/06/25 08:03:50;;;;;;;42.33;30.50;;;;;;;14.72;74.42;101715.00;5073908;28;20103;-65
2021/06/25 08:06:15;;;;;;;45.17;31.13;;;;;;;14.77;74.60;101716.78;5074007;28;20067;-66
2021/06/25 08:08:41;;;;;;;43.28;30.30;;;;;;;14.82;73.77;101703.47;5074131;28;20107;-67
2021/06/25 08:11:06;;;;;;;40.55;28.90;;;;;;;14.82;73.04;101709.69;5073645;28;20042;-67
2021/06/25 08:13:32;;;;;;;40.67;29.10;;;;;;;14.80;72.90;101707.91;5074359;28;20036;-66
2021/06/25 08:15:57;;;;;;;42.40;30.10;;;;;;;14.84;73.19;101709.69;5074053;28;20056;-66
2021/06/25 08:18:22;;;;;;;40.60;28.85;;;;;;;15.01;73.12;101707.00;5073558;28;20020;-65
2021/06/25 08:20:48;;;;;;;42.08;28.83;;;;;;;15.19;73.83;101706.13;5074097;28;20020;-67
2021/06/25 08:23:13;;;;;;;41.92;28.50;;;;;;;15.37;71.59;101699.88;5073831;28;20399;-67
2021/06/25 08:25:39;;;;;;;40.03;27.80;;;;;;;15.59;71.40;101699.81;5073786;28;20021;-65
2021/06/25 08:28:05;;;;;;;39.40;26.83;;;;;;;15.72;69.35;101692.69;5073858;28;20024;-66
2021/06/25 08:30:32;;;;;;;39.97;27.85;;;;;;;15.98;69.98;101688.16;5073803;28;20032;-67
2021/06/25 08:32:57;;;;;;;38.10;27.13;;;;;;;16.23;67.75;101695.16;5069658;28;20028;-67
2021/06/25 08:35:23;;;;;;;39.03;25.60;;;;;;;16.53;66.40;101694.06;5073664;28;20025;-67
2021/06/25 08:37:49;;;;;;;37.80;25.17;;;;;;;16.68;65.61;101691.28;5073777;28;20482;-67
2021/06/25 08:40:16;;;;;;;35.30;24.27;;;;;;;16.72;64.13;101697.50;5073448;28;20031;-66
2021/06/25 08:42:41;;;;;;;37.22;24.60;;;;;;;16.77;62.74;101689.44;5073565;28;20503;-65
2021/06/25 08:45:11;;;;;;;36.80;24.52;;;;;;;16.74;65.00;101695.69;5069594;28;20107;-68
2021/06/25 08:47:44;;;;;;;36.58;25.20;;;;;;;16.81;64.93;101699.22;5071441;28;21588;-69
2021/06/25 08:50:11;;;;;;;34.80;23.40;;;;;;;16.90;62.84;101688.47;5071865;28;20059;-67
2021/06/25 08:52:37;;;;;;;35.50;23.05;;;;;;;17.00;62.31;101687.50;5071539;28;20040;-68
2021/06/25 08:55:03;;;;;;;34.72;23.08;;;;;;;17.20;63.62;101686.44;5071512;28;20016;-64
2021/06/25 08:57:35;;;;;;;35.08;23.90;;;;;;;17.07;62.34;101691.88;5070055;28;20086;-66
2021/06/25 09:00:07;;;;;;;34.22;22.90;;;;;;;17.21;62.64;101693.53;5069455;28;20469;-67
2021/06/25 09:02:35;;;;;;;33.97;21.73;;;;;;;17.23;60.83;101703.31;5070413;28;20032;-66
2021/06/25 09:05:00;;;;;;;32.92;22.63;;;;;;;17.29;63.60;101693.47;5071928;28;20025;-64
2021/06/25 09:07:42;;;;;;;34.55;23.60;;;;;;;17.49;64.06;101694.13;5071621;28;20160;-65
2021/06/25 09:10:10;;;;;;;34.70;22.73;;;;;;;17.58;60.32;101696.69;5069627;28;20080;-66
2021/06/25 09:12:36;;;;;;;34.05;22.52;;;;;;;17.53;60.91;101686.97;5068890;28;20035;-69
2021/06/25 09:15:06;;;;;;;35.45;22.42;;;;;;;17.51;61.26;101686.09;5070093;28;20020;-66
2021/06/25 09:17:52;;;;;;;32.58;21.60;;;;;;;17.40;60.31;101684.44;5070306;28;20024;-65
2021/06/25 09:20:29;;;;;;;35.67;22.98;;;;;;;17.38;63.03;101677.31;5070285;28;20471;-66
2021/06/25 09:22:54;;;;;;;33.20;21.83;;;;;;;17.72;61.43;101671.59;5069651;28;20047;-66
2021/06/25 09:25:20;;;;;;;33.60;21.73;;;;;;;18.04;60.67;101665.88;5069366;28;20375;-66
2021/06/25 09:27:53;;;;;;;33.25;22.13;;;;;;;18.39;60.24;101668.91;5069833;28;20051;-66
2021/06/25 09:30:19;;;;;;;32.90;20.23;;;;;;;18.49;56.10;101664.31;5069157;28;20024;-65
2021/06/25 09:32:47;;;;;;;31.83;20.15;;;;;;;18.56;56.82;101661.50;5071071;28;20413;-65
2021/06/25 09:35:17;;;;;;;33.25;20.67;;;;;;;18.82;57.39;101663.75;5071071;28;20479;-66
2021/06/25 09:37:48;;;;;;;32.70;21.02;;;;;;;19.59;56.04;101669.53;5071392;28;20036;-67
2021/06/25 09:40:16;;;;;;;32.00;20.77;;;;;;;20.11;53.70;101659.53;5070445;28;20021;-68
2021/06/25 09:42:43;;;;;;;31.35;19.88;;;;;;;20.05;51.85;101662.31;5070449;28;20048;-69
2021/06/25 09:45:14;;;;;;;32.55;18.80;;;;;;;20.42;52.59;101660.63;5071243;28;20543;-67
2021/06/25 09:47:45;;;;;;;30.80;18.95;;;;;;;21.03;51.10;101668.97;5070846;28;20097;-67
2021/06/25 09:50:22;;;;;;;31.00;19.20;;;;;;;20.84;51.53;101664.06;5071296;28;20032;-65
2021/06/25 09:52:54;;;;;;;31.15;18.73;;;;;;;20.78;51.57;101661.53;5070652;28;20031;-65
2021/06/25 09:55:56;;;;;;;29.90;17.92;;;;;;;20.41;51.26;101670.44;5070027;28;20460;-67
2021/06/25 09:58:37;;;;;;;31.45;18.48;;;;;;;20.35;49.99;101675.97;5067813;28;20036;-67
2021/06/25 10:03:57;;;;;;;31.67;17.45;;;;;;;20.84;50.85;101658.69;5069415;28;20505;-65
2021/06/25 10:06:25;;;;;;;29.48;16.10;;;;;;;20.58;49.28;101667.38;5072281;28;20043;-66
2021/06/25 10:08:52;;;;;;;28.23;16.25;;;;;;;20.46;50.33;101660.50;5072106;28;20039;-66
2021/06/25 10:11:20;;;;;;;27.58;15.68;;;;;;;21.09;49.23;101668.78;5072270;28;20490;-66
2021/06/25 10:13:47;;;;;;;29.52;17.80;;;;;;;20.94;49.53;101666.50;5072170;28;20525;-66
2021/06/25 10:16:13;;;;;;;30.92;18.15;;;;;;;20.79;49.07;101655.22;5064592;28;20020;-61
2021/06/25 10:18:45;;;;;;;28.25;17.35;;;;;;;20.66;51.58;101654.69;5070448;28;20372;-61
2021/06/25 10:21:14;;;;;;;28.20;16.75;;;;;;;20.95;50.48;101655.72;5067746;28;20067;-61
2021/06/25 10:23:46;;;;;;;36.75;18.60;;;;;;;20.86;50.81;101655.97;5070178;28;20070;-61
2021/06/25 10:26:14;;;;;;;31.30;19.20;;;;;;;20.89;50.13;101656.75;5070947;28;20093;-62
2021/06/25 10:28:41;;;;;;;29.85;17.33;;;;;;;21.33;48.39;101655.59;5070281;28;20032;-63
2021/06/25 10:31:09;;;;;;;29.48;17.58;;;;;;;23.16;46.72;101646.31;5071033;28;20043;-62
2021/06/25 10:33:35;;;;;;;30.48;19.08;;;;;;;24.83;41.80;101640.75;5070929;28;20078;-62
2021/06/25 10:36:04;;;;;;;29.17;17.23;;;;;;;25.03;39.35;101626.38;5070471;28;20024;-62
2021/06/25 10:38:31;;;;;;;27.70;15.10;;;;;;;25.24;37.97;101635.31;5069158;28;20111;-62
2021/06/25 10:41:03;;;;;;;29.75;16.63;;;;;;;25.93;38.29;101647.53;5069285;28;20463;-62
2021/06/25 10:43:42;;;;;;;28.83;15.75;;;;;;;25.50;38.09;101641.44;5073090;28;20028;-61
2021/06/25 10:46:39;;;;;;;27.77;15.80;;;;;;;23.89;40.84;101651.78;5071586;28;20057;-62
2021/06/25 10:49:13;;;;;;;27.98;15.73;;;;;;;22.76;42.74;101639.59;5051837;28;20064;-62
2021/06/25 10:51:40;;;;;;;28.98;16.48;;;;;;;22.29;43.43;101648.28;5049077;28;20475;-64
2021/06/25 10:54:21;;;;;;;28.08;16.35;;;;;;;21.86;43.75;101650.50;5051370;28;20181;-64
2021/06/25 10:56:49;;;;;;;28.35;15.38;;;;;;;21.33;44.56;101652.91;5051790;28;20040;-62
2021/06/25 10:59:26;;;;;;;28.92;16.15;;;;;;;20.94;47.24;101653.06;5051845;28;20037;-62
2021/06/25 11:02:06;;;;;;;27.75;15.18;;;;;;;20.98;47.17;101660.13;5052968;28;20083;-62
2021/06/25 11:04:42;;;;;;;27.13;14.95;;;;;;;20.66;47.62;101656.44;5052749;28;20033;-62
2021/06/25 11:07:16;;;;;;;30.00;16.98;;;;;;;20.59;46.74;101652.13;5052705;28;20037;-62
2021/06/25 11:10:03;;;;;;;27.90;15.10;;;;;;;20.63;46.29;101653.81;5048752;28;20029;-62
2021/06/25 11:12:36;;;;;;;30.83;16.38;;;;;;;20.47;46.71;101659.56;5051001;28;20041;-62
2021/06/25 11:15:05;;;;;;;29.73;15.60;;;;;;;20.45;46.92;101656.03;5052792;28;20419;-62
2021/06/25 11:17:48;;;;;;;29.50;15.90;;;;;;;20.25;47.95;101647.56;5052841;28;20424;-64
2021/06/25 11:20:34;;;;;;;28.45;16.23;;;;;;;20.25;48.81;101653.81;5049364;28;20029;-62
2021/06/25 11:23:11;;;;;;;27.80;15.23;;;;;;;20.41;47.92;101656.16;5052958;28;20549;-63
2021/06/25 11:25:56;;;;;;;27.17;14.02;;;;;;;20.52;47.65;101659.47;5064855;28;20044;-62